EJU7623 LPPT-GVNP
Flight info
| Callsign | EJU7623 |
|---|---|
| Flight time | 3h 48m |
| Altitude | 37000 |
| Route | BEXAL DCT SAMAR/N0463F300 DCT LIMAL/N0460F380 N873 IPERA DCT BVT DISDA1H |
| Aircraft | A20N/M-SDE2E3FGHIRWXY/LB1 |
Departure
| Time | 2026-04-14 06:20 |
|---|---|
| Airport | Lisbon Humberto Delgado Airport (LPPT) |
Arrival
| Time | 2026-04-14 10:08 |
|---|---|
| Airport | Nelson Mandela International Airport (GVNP) |
| Time | Latitude | Longitude | Altitude | Speed | Heading |
|---|---|---|---|---|---|
| 2026-04-14 05:57 | 38.76862 | -9.13703 | 349 ft | 0 kts | 78° |
| 2026-04-14 06:04 | 38.76858 | -9.13757 | 346 ft | 15 kts | 111° |
| 2026-04-14 06:04 | 38.76844 | -9.13821 | 349 ft | 8 kts | 273° |
| 2026-04-14 06:05 | 38.76862 | -9.13817 | 346 ft | 8 kts | 70° |
| 2026-04-14 06:05 | 38.76874 | -9.13749 | 347 ft | 8 kts | 78° |
| 2026-04-14 06:05 | 38.76878 | -9.13727 | 349 ft | 1 kts | 78° |
| 2026-04-14 06:10 | 38.76874 | -9.13753 | 347 ft | 4 kts | 97° |
| 2026-04-14 06:10 | 38.76881 | -9.13786 | 347 ft | 4 kts | 97° |
| 2026-04-14 06:10 | 38.76878 | -9.13817 | 354 ft | 4 kts | 51° |
| 2026-04-14 06:10 | 38.76857 | -9.13834 | 346 ft | 4 kts | 357° |
| 2026-04-14 06:11 | 38.76851 | -9.13833 | 346 ft | 0 kts | 348° |
| 2026-04-14 06:12 | 38.76861 | -9.13836 | 355 ft | 4 kts | 348° |
| 2026-04-14 06:13 | 38.76906 | -9.13848 | 354 ft | 8 kts | 348° |
| 2026-04-14 06:13 | 38.76967 | -9.13865 | 351 ft | 9 kts | 348° |
| 2026-04-14 06:13 | 38.77031 | -9.13882 | 350 ft | 10 kts | 348° |
| 2026-04-14 06:13 | 38.77089 | -9.13916 | 358 ft | 9 kts | 310° |
| 2026-04-14 06:14 | 38.77121 | -9.13984 | 359 ft | 9 kts | 294° |
| 2026-04-14 06:14 | 38.77148 | -9.14063 | 353 ft | 10 kts | 293° |
| 2026-04-14 06:14 | 38.77199 | -9.14085 | 355 ft | 8 kts | 13° |
| 2026-04-14 06:14 | 38.77209 | -9.14082 | 355 ft | 0 kts | 13° |
| 2026-04-14 06:15 | 38.77221 | -9.14078 | 364 ft | 7 kts | 14° |
| 2026-04-14 06:15 | 38.77231 | -9.14076 | 360 ft | 0 kts | 11° |
| 2026-04-14 06:16 | 38.77286 | -9.14043 | 358 ft | 27 kts | 29° |
| 2026-04-14 06:16 | 38.77518 | -9.13949 | 363 ft | 8 kts | 58° |
| 2026-04-14 06:17 | 38.77542 | -9.13909 | 363 ft | 0 kts | 29° |
| 2026-04-14 06:19 | 38.77561 | -9.13899 | 363 ft | 12 kts | 22° |
| 2026-04-14 06:19 | 38.77831 | -9.13757 | 365 ft | 75 kts | 22° |
| 2026-04-14 06:19 | 38.78494 | -9.13404 | 362 ft | 129 kts | 23° |
| 2026-04-14 06:20 | 38.79455 | -9.12892 | 393 ft | 166 kts | 22° |
| 2026-04-14 06:20 | 38.80525 | -9.12286 | 824 ft | 169 kts | 22° |
| 2026-04-14 06:20 | 38.81599 | -9.11684 | 1433 ft | 168 kts | 27° |
| 2026-04-14 06:20 | 38.82530 | -9.10778 | 2009 ft | 170 kts | 46° |
| 2026-04-14 06:21 | 38.83210 | -9.09448 | 2446 ft | 189 kts | 65° |
| 2026-04-14 06:21 | 38.83495 | -9.07716 | 2782 ft | 210 kts | 89° |
| 2026-04-14 06:21 | 38.83189 | -9.05802 | 3164 ft | 231 kts | 114° |
| 2026-04-14 06:21 | 38.82277 | -9.03969 | 3523 ft | 256 kts | 126° |
| 2026-04-14 06:22 | 38.81207 | -9.02078 | 4015 ft | 273 kts | 126° |
| 2026-04-14 06:22 | 38.79901 | -9.00338 | 4813 ft | 278 kts | 148° |
| 2026-04-14 06:22 | 38.78072 | -8.99457 | 5602 ft | 281 kts | 176° |
| 2026-04-14 06:22 | 38.76137 | -8.99717 | 6356 ft | 282 kts | 201° |
| 2026-04-14 06:23 | 38.74318 | -9.00678 | 7142 ft | 284 kts | 208° |
| 2026-04-14 06:23 | 38.72532 | -9.01814 | 7966 ft | 288 kts | 210° |
| 2026-04-14 06:23 | 38.70725 | -9.02965 | 8763 ft | 292 kts | 209° |
| 2026-04-14 06:23 | 38.68871 | -9.04089 | 9511 ft | 297 kts | 207° |
| 2026-04-14 06:24 | 38.66972 | -9.05184 | 10287 ft | 301 kts | 206° |
| 2026-04-14 06:24 | 38.65012 | -9.06282 | 10769 ft | 318 kts | 206° |
| 2026-04-14 06:24 | 38.62911 | -9.07444 | 10990 ft | 341 kts | 205° |
| 2026-04-14 06:24 | 38.60678 | -9.08670 | 11416 ft | 354 kts | 205° |
| 2026-04-14 06:25 | 38.58399 | -9.09914 | 12166 ft | 357 kts | 205° |
| 2026-04-14 06:25 | 38.56097 | -9.11168 | 12850 ft | 362 kts | 205° |
| 2026-04-14 06:25 | 38.53757 | -9.12444 | 13488 ft | 368 kts | 205° |
| 2026-04-14 06:25 | 38.51384 | -9.13736 | 14131 ft | 373 kts | 205° |
| 2026-04-14 06:26 | 38.49009 | -9.15029 | 14732 ft | 378 kts | 205° |
| 2026-04-14 06:26 | 38.46575 | -9.16356 | 15339 ft | 383 kts | 205° |
| 2026-04-14 06:26 | 38.44107 | -9.17704 | 15936 ft | 387 kts | 206° |
| 2026-04-14 06:26 | 38.41707 | -9.19292 | 16508 ft | 389 kts | 214° |
| 2026-04-14 06:27 | 38.39478 | -9.21254 | 17079 ft | 391 kts | 220° |
| 2026-04-14 06:27 | 38.37283 | -9.23341 | 17611 ft | 396 kts | 220° |
| 2026-04-14 06:27 | 38.35074 | -9.25474 | 18144 ft | 400 kts | 221° |
| 2026-04-14 06:27 | 38.32843 | -9.27630 | 18682 ft | 404 kts | 221° |
| 2026-04-14 06:28 | 38.30589 | -9.29803 | 19225 ft | 408 kts | 221° |
| 2026-04-14 06:28 | 38.28319 | -9.31985 | 19787 ft | 411 kts | 221° |
| 2026-04-14 06:28 | 38.26028 | -9.34181 | 20292 ft | 414 kts | 221° |
| 2026-04-14 06:28 | 38.23712 | -9.36397 | 20800 ft | 418 kts | 221° |
| 2026-04-14 06:29 | 38.21378 | -9.38628 | 21320 ft | 421 kts | 221° |
| 2026-04-14 06:29 | 38.19029 | -9.40867 | 21825 ft | 424 kts | 221° |
| 2026-04-14 06:29 | 38.16663 | -9.43120 | 22304 ft | 427 kts | 221° |
| 2026-04-14 06:29 | 38.14309 | -9.45360 | 22769 ft | 430 kts | 221° |
| 2026-04-14 06:30 | 38.11908 | -9.47644 | 23227 ft | 432 kts | 221° |
| 2026-04-14 06:30 | 38.09492 | -9.49940 | 23690 ft | 435 kts | 221° |
| 2026-04-14 06:30 | 38.07060 | -9.52250 | 24139 ft | 438 kts | 221° |
| 2026-04-14 06:30 | 38.04614 | -9.54570 | 24584 ft | 440 kts | 221° |
| 2026-04-14 06:31 | 38.02153 | -9.56902 | 25001 ft | 443 kts | 221° |
| 2026-04-14 06:31 | 37.99673 | -9.59249 | 25437 ft | 445 kts | 221° |
| 2026-04-14 06:31 | 37.97178 | -9.61608 | 25819 ft | 448 kts | 221° |
| 2026-04-14 06:31 | 37.94674 | -9.63974 | 26205 ft | 451 kts | 221° |
| 2026-04-14 06:32 | 37.92149 | -9.66357 | 26605 ft | 453 kts | 221° |
| 2026-04-14 06:32 | 37.89614 | -9.68747 | 26966 ft | 455 kts | 221° |
| 2026-04-14 06:32 | 37.87067 | -9.71148 | 27308 ft | 458 kts | 222° |
| 2026-04-14 06:32 | 37.84503 | -9.73562 | 27635 ft | 460 kts | 222° |
| 2026-04-14 06:33 | 37.81925 | -9.75986 | 27988 ft | 462 kts | 222° |
| 2026-04-14 06:33 | 37.79336 | -9.78418 | 28306 ft | 464 kts | 222° |
| 2026-04-14 06:33 | 37.76736 | -9.80859 | 28603 ft | 466 kts | 222° |
| 2026-04-14 06:34 | 37.71502 | -9.85769 | 29174 ft | 470 kts | 222° |
| 2026-04-14 06:34 | 37.68902 | -9.88202 | 29458 ft | 472 kts | 222° |
| 2026-04-14 06:34 | 37.66260 | -9.90673 | 29724 ft | 473 kts | 222° |
| 2026-04-14 06:34 | 37.63606 | -9.93154 | 29975 ft | 476 kts | 222° |
| 2026-04-14 06:35 | 37.60942 | -9.95642 | 30235 ft | 477 kts | 222° |
| 2026-04-14 06:35 | 37.59134 | -9.97329 | 30424 ft | 478 kts | 222° |
| 2026-04-14 06:35 | 37.55576 | -10.00649 | 30738 ft | 482 kts | 222° |
| 2026-04-14 06:35 | 37.53794 | -10.02311 | 30912 ft | 482 kts | 222° |
| 2026-04-14 06:36 | 37.51095 | -10.04825 | 31219 ft | 483 kts | 222° |
| 2026-04-14 06:36 | 37.48387 | -10.07345 | 31460 ft | 485 kts | 222° |
| 2026-04-14 06:36 | 37.45673 | -10.09866 | 31779 ft | 484 kts | 222° |
| 2026-04-14 06:36 | 37.42958 | -10.12384 | 32097 ft | 484 kts | 222° |
| 2026-04-14 06:37 | 37.40249 | -10.14892 | 32419 ft | 483 kts | 222° |
| 2026-04-14 06:37 | 37.37541 | -10.17398 | 32730 ft | 483 kts | 222° |
| 2026-04-14 06:37 | 37.34839 | -10.19897 | 33028 ft | 482 kts | 222° |
| 2026-04-14 06:37 | 37.32142 | -10.22390 | 33298 ft | 482 kts | 222° |
| 2026-04-14 06:38 | 37.29437 | -10.24890 | 33541 ft | 482 kts | 222° |
| 2026-04-14 06:38 | 37.26733 | -10.27385 | 33802 ft | 481 kts | 222° |
| 2026-04-14 06:38 | 37.24037 | -10.29871 | 34066 ft | 481 kts | 222° |
| 2026-04-14 06:38 | 37.21345 | -10.32352 | 34318 ft | 480 kts | 222° |
| 2026-04-14 06:39 | 37.18651 | -10.34831 | 34554 ft | 479 kts | 222° |
| 2026-04-14 06:39 | 37.15961 | -10.37305 | 34775 ft | 479 kts | 222° |
| 2026-04-14 06:39 | 37.13310 | -10.39741 | 34979 ft | 479 kts | 222° |
| 2026-04-14 06:39 | 37.10619 | -10.42213 | 35183 ft | 479 kts | 222° |
| 2026-04-14 06:40 | 37.07932 | -10.44678 | 35382 ft | 479 kts | 222° |
| 2026-04-14 06:40 | 37.05245 | -10.47139 | 35578 ft | 478 kts | 222° |
| 2026-04-14 06:40 | 37.02558 | -10.49600 | 35765 ft | 478 kts | 222° |
| 2026-04-14 06:40 | 36.99868 | -10.52059 | 35960 ft | 478 kts | 222° |
| 2026-04-14 06:41 | 36.97189 | -10.54508 | 36135 ft | 477 kts | 222° |
| 2026-04-14 06:41 | 36.94507 | -10.56958 | 36312 ft | 477 kts | 222° |
| 2026-04-14 06:41 | 36.91827 | -10.59402 | 36446 ft | 477 kts | 222° |
| 2026-04-14 06:41 | 36.89146 | -10.61848 | 36565 ft | 478 kts | 222° |
| 2026-04-14 06:42 | 36.86459 | -10.64295 | 36736 ft | 477 kts | 222° |
| 2026-04-14 06:42 | 36.83787 | -10.66725 | 37003 ft | 473 kts | 222° |
| 2026-04-14 06:42 | 36.81132 | -10.69136 | 37174 ft | 472 kts | 222° |
| 2026-04-14 06:42 | 36.78479 | -10.71546 | 37256 ft | 473 kts | 222° |
| 2026-04-14 06:43 | 36.73121 | -10.76411 | 37257 ft | 479 kts | 222° |
| 2026-04-14 06:43 | 36.68625 | -10.80484 | 37266 ft | 482 kts | 222° |
| 2026-04-14 06:44 | 36.62247 | -10.86252 | 37266 ft | 486 kts | 222° |
| 2026-04-14 06:44 | 36.56796 | -10.91170 | 37267 ft | 488 kts | 221° |
| 2026-04-14 06:45 | 36.51284 | -10.96133 | 37267 ft | 490 kts | 221° |
| 2026-04-14 06:45 | 36.45755 | -11.01103 | 37266 ft | 490 kts | 221° |
| 2026-04-14 06:46 | 36.37454 | -11.08548 | 37266 ft | 491 kts | 221° |
| 2026-04-14 06:47 | 36.31912 | -11.13508 | 37266 ft | 491 kts | 221° |
| 2026-04-14 06:47 | 36.26367 | -11.18462 | 37266 ft | 491 kts | 221° |
| 2026-04-14 06:48 | 36.20829 | -11.23401 | 37266 ft | 490 kts | 221° |
| 2026-04-14 06:48 | 36.15290 | -11.28331 | 37266 ft | 490 kts | 221° |
| 2026-04-14 06:49 | 36.09756 | -11.33250 | 37266 ft | 489 kts | 221° |
| 2026-04-14 06:49 | 36.04257 | -11.38127 | 37266 ft | 489 kts | 221° |
| 2026-04-14 06:50 | 35.98732 | -11.43019 | 37266 ft | 489 kts | 220° |
| 2026-04-14 06:50 | 35.92811 | -11.47357 | 37267 ft | 495 kts | 211° |
| 2026-04-14 06:51 | 35.86647 | -11.51148 | 37266 ft | 495 kts | 211° |
| 2026-04-14 06:51 | 35.80530 | -11.54923 | 37266 ft | 495 kts | 211° |
| 2026-04-14 06:52 | 35.74379 | -11.58745 | 37266 ft | 495 kts | 211° |
| 2026-04-14 06:52 | 35.68231 | -11.62570 | 37266 ft | 494 kts | 211° |
| 2026-04-14 06:53 | 35.62093 | -11.66382 | 37266 ft | 495 kts | 211° |
| 2026-04-14 06:53 | 35.55943 | -11.70192 | 37266 ft | 495 kts | 211° |
| 2026-04-14 06:54 | 35.43665 | -11.77779 | 37241 ft | 495 kts | 211° |
| 2026-04-14 06:55 | 35.37510 | -11.81572 | 37238 ft | 495 kts | 211° |
| 2026-04-14 06:55 | 35.31348 | -11.85365 | 37239 ft | 495 kts | 211° |
| 2026-04-14 06:56 | 35.25192 | -11.89146 | 37238 ft | 494 kts | 211° |
| 2026-04-14 06:56 | 35.19039 | -11.92917 | 37241 ft | 495 kts | 211° |
| 2026-04-14 06:57 | 35.12916 | -11.96665 | 37240 ft | 495 kts | 211° |
| 2026-04-14 06:57 | 35.06715 | -12.00454 | 37242 ft | 495 kts | 211° |
| 2026-04-14 06:58 | 35.00556 | -12.04213 | 37238 ft | 494 kts | 210° |
| 2026-04-14 06:58 | 34.94404 | -12.07962 | 37238 ft | 494 kts | 210° |
| 2026-04-14 06:59 | 34.88260 | -12.11698 | 37240 ft | 493 kts | 210° |
| 2026-04-14 06:59 | 34.82153 | -12.15404 | 37241 ft | 493 kts | 210° |
| 2026-04-14 07:00 | 34.76012 | -12.19124 | 37239 ft | 493 kts | 210° |
| 2026-04-14 07:00 | 34.69874 | -12.22837 | 37241 ft | 493 kts | 210° |
| 2026-04-14 07:01 | 34.63730 | -12.26548 | 37238 ft | 493 kts | 210° |
| 2026-04-14 07:01 | 34.57588 | -12.30250 | 37235 ft | 493 kts | 210° |
| 2026-04-14 07:02 | 34.51442 | -12.33948 | 37236 ft | 493 kts | 210° |
| 2026-04-14 07:02 | 34.45301 | -12.37638 | 37239 ft | 493 kts | 210° |
| 2026-04-14 07:03 | 34.39150 | -12.41327 | 37239 ft | 493 kts | 210° |
| 2026-04-14 07:03 | 34.33007 | -12.45007 | 37238 ft | 493 kts | 210° |
| 2026-04-14 07:04 | 34.26857 | -12.48683 | 37235 ft | 493 kts | 210° |
| 2026-04-14 07:04 | 34.20663 | -12.52381 | 37239 ft | 493 kts | 210° |
| 2026-04-14 07:05 | 34.14518 | -12.56044 | 37242 ft | 493 kts | 210° |
| 2026-04-14 07:05 | 34.08364 | -12.59705 | 37237 ft | 493 kts | 210° |
| 2026-04-14 07:06 | 34.02202 | -12.63367 | 37239 ft | 493 kts | 209° |
| 2026-04-14 07:06 | 33.96057 | -12.67011 | 37239 ft | 493 kts | 209° |
| 2026-04-14 07:07 | 33.89904 | -12.70655 | 37237 ft | 492 kts | 209° |
| 2026-04-14 07:07 | 33.83793 | -12.74267 | 37238 ft | 492 kts | 209° |
| 2026-04-14 07:08 | 33.77644 | -12.77898 | 37239 ft | 493 kts | 209° |
| 2026-04-14 07:08 | 33.71489 | -12.81525 | 37230 ft | 492 kts | 209° |
| 2026-04-14 07:09 | 33.65342 | -12.85141 | 37236 ft | 492 kts | 209° |
| 2026-04-14 07:09 | 33.59198 | -12.88750 | 37241 ft | 491 kts | 209° |
| 2026-04-14 07:10 | 33.53058 | -12.92351 | 37238 ft | 491 kts | 209° |
| 2026-04-14 07:10 | 33.46922 | -12.95944 | 37242 ft | 491 kts | 208° |
| 2026-04-14 07:11 | 33.40780 | -12.99534 | 37240 ft | 490 kts | 208° |
| 2026-04-14 07:11 | 33.34687 | -13.03090 | 37236 ft | 490 kts | 208° |
| 2026-04-14 07:12 | 33.28548 | -13.06668 | 37239 ft | 490 kts | 208° |
| 2026-04-14 07:12 | 33.22419 | -13.10235 | 37240 ft | 490 kts | 208° |
| 2026-04-14 07:13 | 33.16283 | -13.13799 | 37239 ft | 490 kts | 208° |
| 2026-04-14 07:13 | 33.10153 | -13.17355 | 37239 ft | 490 kts | 208° |
| 2026-04-14 07:14 | 33.04030 | -13.20901 | 37257 ft | 489 kts | 208° |
| 2026-04-14 07:14 | 32.97906 | -13.24440 | 37257 ft | 489 kts | 208° |
| 2026-04-14 07:15 | 32.91785 | -13.27973 | 37257 ft | 488 kts | 208° |
| 2026-04-14 07:15 | 32.85675 | -13.31496 | 37257 ft | 488 kts | 208° |
| 2026-04-14 07:16 | 32.79557 | -13.35018 | 37257 ft | 488 kts | 208° |
| 2026-04-14 07:16 | 32.73443 | -13.38532 | 37257 ft | 488 kts | 208° |
| 2026-04-14 07:17 | 32.67331 | -13.42039 | 37233 ft | 488 kts | 208° |
| 2026-04-14 07:17 | 32.62246 | -13.44952 | 37231 ft | 488 kts | 208° |
| 2026-04-14 07:18 | 32.56133 | -13.48450 | 37232 ft | 487 kts | 208° |
| 2026-04-14 07:18 | 32.50027 | -13.51940 | 37230 ft | 487 kts | 208° |
| 2026-04-14 07:19 | 32.43923 | -13.55422 | 37229 ft | 487 kts | 207° |
| 2026-04-14 07:19 | 32.37826 | -13.58894 | 37228 ft | 486 kts | 207° |
| 2026-04-14 07:20 | 32.31732 | -13.62361 | 37238 ft | 486 kts | 207° |
| 2026-04-14 07:20 | 32.25680 | -13.65798 | 37239 ft | 485 kts | 207° |
| 2026-04-14 07:21 | 32.19549 | -13.69275 | 37232 ft | 485 kts | 207° |
| 2026-04-14 07:21 | 32.13466 | -13.72718 | 37229 ft | 485 kts | 207° |
| 2026-04-14 07:22 | 32.07381 | -13.76157 | 37227 ft | 484 kts | 207° |
| 2026-04-14 07:22 | 32.01309 | -13.79585 | 37232 ft | 484 kts | 207° |
| 2026-04-14 07:23 | 31.95263 | -13.82993 | 37227 ft | 484 kts | 207° |
| 2026-04-14 07:23 | 31.89189 | -13.86412 | 37232 ft | 484 kts | 207° |
| 2026-04-14 07:24 | 31.83116 | -13.89824 | 37236 ft | 483 kts | 207° |
| 2026-04-14 07:24 | 31.77046 | -13.93229 | 37237 ft | 483 kts | 207° |
| 2026-04-14 07:25 | 31.70932 | -13.96656 | 37228 ft | 484 kts | 207° |
| 2026-04-14 07:25 | 31.66196 | -13.99306 | 37231 ft | 483 kts | 207° |
| 2026-04-14 07:26 | 31.60119 | -14.02702 | 37229 ft | 483 kts | 207° |
| 2026-04-14 07:26 | 31.54043 | -14.06094 | 37223 ft | 484 kts | 207° |
| 2026-04-14 07:27 | 31.47965 | -14.09481 | 37210 ft | 484 kts | 207° |
| 2026-04-14 07:27 | 31.41887 | -14.12862 | 37210 ft | 483 kts | 207° |
| 2026-04-14 07:28 | 31.35808 | -14.16239 | 37211 ft | 483 kts | 207° |
| 2026-04-14 07:28 | 31.29737 | -14.19607 | 37210 ft | 483 kts | 207° |
| 2026-04-14 07:29 | 31.23661 | -14.22974 | 37211 ft | 482 kts | 207° |
| 2026-04-14 07:29 | 31.17591 | -14.26333 | 37211 ft | 482 kts | 207° |
| 2026-04-14 07:30 | 31.11521 | -14.29688 | 37211 ft | 482 kts | 206° |
| 2026-04-14 07:30 | 31.05450 | -14.33039 | 37204 ft | 482 kts | 206° |
| 2026-04-14 07:31 | 30.99423 | -14.36363 | 37201 ft | 482 kts | 206° |
| 2026-04-14 07:31 | 30.93362 | -14.39702 | 37202 ft | 482 kts | 206° |
| 2026-04-14 07:32 | 30.87313 | -14.43049 | 37201 ft | 481 kts | 207° |
| 2026-04-14 07:32 | 30.81312 | -14.46515 | 37201 ft | 481 kts | 208° |
| 2026-04-14 07:33 | 30.75324 | -14.49999 | 37203 ft | 481 kts | 207° |
| 2026-04-14 07:33 | 30.69336 | -14.53465 | 37194 ft | 481 kts | 207° |
| 2026-04-14 07:34 | 30.57344 | -14.60377 | 37192 ft | 481 kts | 207° |
| 2026-04-14 07:35 | 30.51353 | -14.63821 | 37192 ft | 481 kts | 207° |
| 2026-04-14 07:35 | 30.45353 | -14.67268 | 37192 ft | 481 kts | 207° |
| 2026-04-14 07:36 | 30.39388 | -14.70688 | 37189 ft | 481 kts | 207° |
| 2026-04-14 07:36 | 30.33395 | -14.74120 | 37186 ft | 480 kts | 207° |
| 2026-04-14 07:37 | 30.27396 | -14.77549 | 37183 ft | 480 kts | 207° |
| 2026-04-14 07:37 | 30.21405 | -14.80970 | 37186 ft | 480 kts | 207° |
| 2026-04-14 07:38 | 30.15407 | -14.84389 | 37189 ft | 480 kts | 207° |
| 2026-04-14 07:38 | 30.09412 | -14.87800 | 37181 ft | 480 kts | 207° |
| 2026-04-14 07:39 | 30.03421 | -14.91207 | 37185 ft | 480 kts | 207° |
| 2026-04-14 07:39 | 29.97428 | -14.94609 | 37176 ft | 480 kts | 207° |
| 2026-04-14 07:40 | 29.91430 | -14.98013 | 37187 ft | 479 kts | 207° |
| 2026-04-14 07:40 | 29.85482 | -15.01383 | 37189 ft | 479 kts | 207° |
| 2026-04-14 07:41 | 29.79492 | -15.04771 | 37189 ft | 479 kts | 207° |
| 2026-04-14 07:42 | 29.68157 | -15.11168 | 37182 ft | 479 kts | 207° |
| 2026-04-14 07:42 | 29.61152 | -15.15114 | 37196 ft | 479 kts | 207° |
| 2026-04-14 07:43 | 29.56174 | -15.17913 | 37193 ft | 479 kts | 207° |
| 2026-04-14 07:43 | 29.50179 | -15.21282 | 37195 ft | 479 kts | 207° |
| 2026-04-14 07:44 | 29.43228 | -15.25181 | 37211 ft | 479 kts | 207° |
| 2026-04-14 07:44 | 29.38208 | -15.27995 | 37212 ft | 479 kts | 207° |
| 2026-04-14 07:45 | 29.32258 | -15.31324 | 37211 ft | 479 kts | 206° |
| 2026-04-14 07:45 | 29.26269 | -15.34669 | 37211 ft | 479 kts | 206° |
| 2026-04-14 07:46 | 29.20277 | -15.38013 | 37210 ft | 479 kts | 206° |
| 2026-04-14 07:46 | 29.14288 | -15.41350 | 37218 ft | 478 kts | 206° |
| 2026-04-14 07:47 | 29.08294 | -15.44686 | 37210 ft | 479 kts | 206° |
| 2026-04-14 07:47 | 29.02307 | -15.48015 | 37209 ft | 479 kts | 206° |
| 2026-04-14 07:48 | 28.96315 | -15.51342 | 37222 ft | 479 kts | 206° |
| 2026-04-14 07:48 | 28.90314 | -15.54669 | 37212 ft | 479 kts | 206° |
| 2026-04-14 07:49 | 28.84320 | -15.57989 | 37210 ft | 479 kts | 206° |
| 2026-04-14 07:49 | 28.78326 | -15.61302 | 37210 ft | 479 kts | 206° |
| 2026-04-14 07:50 | 28.72329 | -15.64612 | 37212 ft | 479 kts | 206° |
| 2026-04-14 07:50 | 28.66332 | -15.67920 | 37211 ft | 479 kts | 206° |
| 2026-04-14 07:51 | 28.60336 | -15.71224 | 37211 ft | 479 kts | 206° |
| 2026-04-14 07:51 | 28.54329 | -15.74530 | 37210 ft | 479 kts | 206° |
| 2026-04-14 07:52 | 28.48364 | -15.77808 | 37221 ft | 479 kts | 205° |
| 2026-04-14 07:52 | 28.42358 | -15.81105 | 37211 ft | 480 kts | 205° |
| 2026-04-14 07:53 | 28.36346 | -15.84401 | 37211 ft | 479 kts | 205° |
| 2026-04-14 07:53 | 28.30340 | -15.87690 | 37211 ft | 479 kts | 205° |
| 2026-04-14 07:54 | 28.24331 | -15.90975 | 37211 ft | 479 kts | 205° |
| 2026-04-14 07:54 | 28.18324 | -15.94255 | 37211 ft | 479 kts | 205° |
| 2026-04-14 07:55 | 28.12317 | -15.97530 | 37210 ft | 479 kts | 205° |
| 2026-04-14 07:55 | 28.06307 | -16.00802 | 37211 ft | 479 kts | 205° |
| 2026-04-14 07:56 | 28.00293 | -16.04073 | 37198 ft | 480 kts | 205° |
| 2026-04-14 07:56 | 27.95297 | -16.06784 | 37201 ft | 479 kts | 205° |
| 2026-04-14 07:57 | 27.88304 | -16.10575 | 37201 ft | 479 kts | 205° |
| 2026-04-14 07:57 | 27.82290 | -16.13834 | 37201 ft | 479 kts | 205° |
| 2026-04-14 07:58 | 27.76281 | -16.17087 | 37202 ft | 479 kts | 205° |
| 2026-04-14 07:58 | 27.70271 | -16.20336 | 37203 ft | 479 kts | 205° |
| 2026-04-14 07:59 | 27.64255 | -16.23582 | 37203 ft | 478 kts | 205° |
| 2026-04-14 07:59 | 27.58252 | -16.26821 | 37201 ft | 478 kts | 205° |
| 2026-04-14 08:00 | 27.54283 | -16.28959 | 37201 ft | 477 kts | 205° |
| 2026-04-14 08:01 | 27.40372 | -16.36437 | 37208 ft | 476 kts | 205° |
| 2026-04-14 08:01 | 27.34398 | -16.39642 | 37210 ft | 475 kts | 205° |
| 2026-04-14 08:02 | 27.28435 | -16.42839 | 37211 ft | 474 kts | 205° |
| 2026-04-14 08:02 | 27.22478 | -16.46028 | 37210 ft | 474 kts | 205° |
| 2026-04-14 08:03 | 27.16527 | -16.49210 | 37211 ft | 473 kts | 205° |
| 2026-04-14 08:03 | 27.10584 | -16.52384 | 37211 ft | 472 kts | 205° |
| 2026-04-14 08:04 | 27.04650 | -16.55550 | 37211 ft | 471 kts | 205° |
| 2026-04-14 08:04 | 26.98762 | -16.58686 | 37198 ft | 471 kts | 205° |
| 2026-04-14 08:05 | 26.92840 | -16.61836 | 37191 ft | 470 kts | 205° |
| 2026-04-14 08:05 | 26.86931 | -16.64979 | 37195 ft | 469 kts | 205° |
| 2026-04-14 08:06 | 26.81028 | -16.68113 | 37181 ft | 469 kts | 206° |
| 2026-04-14 08:06 | 26.75131 | -16.71241 | 37194 ft | 468 kts | 205° |
| 2026-04-14 08:07 | 26.69277 | -16.74342 | 37193 ft | 468 kts | 206° |
| 2026-04-14 08:07 | 26.63392 | -16.77456 | 37181 ft | 467 kts | 206° |
| 2026-04-14 08:08 | 26.57509 | -16.80564 | 37178 ft | 467 kts | 206° |
| 2026-04-14 08:08 | 26.51640 | -16.83663 | 37185 ft | 466 kts | 206° |
| 2026-04-14 08:09 | 26.45773 | -16.86758 | 37188 ft | 466 kts | 206° |
| 2026-04-14 08:09 | 26.39899 | -16.89853 | 37181 ft | 466 kts | 206° |
| 2026-04-14 08:10 | 26.34073 | -16.92919 | 37188 ft | 466 kts | 206° |
| 2026-04-14 08:10 | 26.28216 | -16.95999 | 37183 ft | 465 kts | 206° |
| 2026-04-14 08:11 | 26.22358 | -16.99075 | 37174 ft | 465 kts | 206° |
| 2026-04-14 08:11 | 26.16509 | -17.02143 | 37194 ft | 465 kts | 206° |
| 2026-04-14 08:12 | 26.10661 | -17.05207 | 37189 ft | 464 kts | 206° |
| 2026-04-14 08:12 | 26.04818 | -17.08265 | 37194 ft | 464 kts | 206° |
| 2026-04-14 08:13 | 25.98981 | -17.11316 | 37197 ft | 464 kts | 206° |
| 2026-04-14 08:13 | 25.93098 | -17.14383 | 37182 ft | 462 kts | 206° |
| 2026-04-14 08:14 | 25.87318 | -17.17392 | 37180 ft | 460 kts | 206° |
| 2026-04-14 08:14 | 25.81486 | -17.20430 | 37182 ft | 459 kts | 206° |
| 2026-04-14 08:15 | 25.75706 | -17.23438 | 37178 ft | 459 kts | 206° |
| 2026-04-14 08:15 | 25.72817 | -17.24941 | 37175 ft | 458 kts | 206° |
| 2026-04-14 08:16 | 25.58392 | -17.32430 | 37169 ft | 457 kts | 207° |
| 2026-04-14 08:17 | 25.52640 | -17.35413 | 37176 ft | 457 kts | 207° |
| 2026-04-14 08:17 | 25.46880 | -17.38395 | 37169 ft | 456 kts | 207° |
| 2026-04-14 08:18 | 25.41134 | -17.41366 | 37179 ft | 456 kts | 207° |
| 2026-04-14 08:18 | 25.35385 | -17.44335 | 37171 ft | 455 kts | 207° |
| 2026-04-14 08:19 | 25.29646 | -17.47295 | 37175 ft | 455 kts | 207° |
| 2026-04-14 08:19 | 25.23911 | -17.50250 | 37179 ft | 454 kts | 207° |
| 2026-04-14 08:20 | 25.18218 | -17.53182 | 37179 ft | 454 kts | 207° |
| 2026-04-14 08:20 | 25.13419 | -17.55651 | 37169 ft | 454 kts | 207° |
| 2026-04-14 08:21 | 25.06766 | -17.59071 | 37169 ft | 453 kts | 207° |
| 2026-04-14 08:21 | 25.01052 | -17.62008 | 37168 ft | 452 kts | 208° |
| 2026-04-14 08:22 | 24.95635 | -17.65440 | 37162 ft | 448 kts | 214° |
| 2026-04-14 08:22 | 24.90364 | -17.69096 | 37161 ft | 447 kts | 215° |
| 2026-04-14 08:23 | 24.85108 | -17.72749 | 37163 ft | 446 kts | 215° |
| 2026-04-14 08:23 | 24.79854 | -17.76383 | 37161 ft | 445 kts | 216° |
| 2026-04-14 08:24 | 24.75494 | -17.79390 | 37161 ft | 445 kts | 216° |
| 2026-04-14 08:24 | 24.69369 | -17.83608 | 37164 ft | 443 kts | 216° |
| 2026-04-14 08:25 | 24.64145 | -17.87201 | 37163 ft | 442 kts | 216° |
| 2026-04-14 08:25 | 24.58994 | -17.90739 | 37144 ft | 442 kts | 216° |
| 2026-04-14 08:26 | 24.54597 | -17.93758 | 37147 ft | 441 kts | 216° |
| 2026-04-14 08:26 | 24.49396 | -17.97324 | 37147 ft | 440 kts | 216° |
| 2026-04-14 08:27 | 24.44200 | -18.00884 | 37147 ft | 439 kts | 216° |
| 2026-04-14 08:27 | 24.39891 | -18.03834 | 37146 ft | 439 kts | 216° |
| 2026-04-14 08:28 | 24.34909 | -18.07240 | 37147 ft | 438 kts | 217° |
| 2026-04-14 08:28 | 24.29738 | -18.10774 | 37148 ft | 437 kts | 217° |
| 2026-04-14 08:29 | 24.24579 | -18.14294 | 37147 ft | 437 kts | 217° |
| 2026-04-14 08:29 | 24.19422 | -18.17810 | 37147 ft | 436 kts | 217° |
| 2026-04-14 08:30 | 24.14270 | -18.21319 | 37146 ft | 436 kts | 217° |
| 2026-04-14 08:30 | 24.09125 | -18.24820 | 37147 ft | 435 kts | 217° |
| 2026-04-14 08:31 | 24.03984 | -18.28315 | 37147 ft | 435 kts | 217° |
| 2026-04-14 08:31 | 23.96294 | -18.33536 | 37146 ft | 435 kts | 217° |
| 2026-04-14 08:32 | 23.91156 | -18.37020 | 37147 ft | 434 kts | 217° |
| 2026-04-14 08:32 | 23.86020 | -18.40499 | 37147 ft | 434 kts | 217° |
| 2026-04-14 08:33 | 23.80889 | -18.43969 | 37148 ft | 433 kts | 217° |
| 2026-04-14 08:33 | 23.75757 | -18.47439 | 37145 ft | 433 kts | 217° |
| 2026-04-14 08:34 | 23.70628 | -18.50905 | 37124 ft | 433 kts | 217° |
| 2026-04-14 08:34 | 23.65524 | -18.54349 | 37104 ft | 433 kts | 217° |
| 2026-04-14 08:35 | 23.60402 | -18.57801 | 37099 ft | 433 kts | 217° |
| 2026-04-14 08:35 | 23.55281 | -18.61249 | 37090 ft | 432 kts | 217° |
| 2026-04-14 08:36 | 23.50173 | -18.64686 | 37098 ft | 431 kts | 217° |
| 2026-04-14 08:36 | 23.45064 | -18.68120 | 37096 ft | 431 kts | 217° |
| 2026-04-14 08:37 | 23.39966 | -18.71544 | 37094 ft | 430 kts | 217° |
| 2026-04-14 08:37 | 23.34870 | -18.74962 | 37083 ft | 430 kts | 217° |
| 2026-04-14 08:38 | 23.29781 | -18.78373 | 37084 ft | 429 kts | 217° |
| 2026-04-14 08:38 | 23.24702 | -18.81773 | 37092 ft | 428 kts | 217° |
| 2026-04-14 08:39 | 23.19630 | -18.85166 | 37094 ft | 428 kts | 217° |
| 2026-04-14 08:39 | 23.14597 | -18.88531 | 37090 ft | 427 kts | 217° |
| 2026-04-14 08:40 | 23.09530 | -18.91915 | 37081 ft | 427 kts | 217° |
| 2026-04-14 08:40 | 23.04472 | -18.95289 | 37082 ft | 426 kts | 217° |
| 2026-04-14 08:41 | 22.99426 | -18.98653 | 37082 ft | 426 kts | 217° |
| 2026-04-14 08:41 | 22.94375 | -19.02015 | 37083 ft | 425 kts | 217° |
| 2026-04-14 08:42 | 22.89335 | -19.05369 | 37082 ft | 425 kts | 217° |
| 2026-04-14 08:42 | 22.84329 | -19.08700 | 37083 ft | 424 kts | 217° |
| 2026-04-14 08:43 | 22.79297 | -19.12042 | 37081 ft | 424 kts | 217° |
| 2026-04-14 08:43 | 22.74271 | -19.15377 | 37083 ft | 424 kts | 217° |
| 2026-04-14 08:44 | 22.69246 | -19.18709 | 37081 ft | 423 kts | 217° |
| 2026-04-14 08:44 | 22.64219 | -19.22040 | 37082 ft | 423 kts | 217° |
| 2026-04-14 08:45 | 22.59198 | -19.25364 | 37081 ft | 422 kts | 217° |
| 2026-04-14 08:45 | 22.54188 | -19.28678 | 37073 ft | 422 kts | 217° |
| 2026-04-14 08:46 | 22.49172 | -19.31992 | 37073 ft | 422 kts | 217° |
| 2026-04-14 08:46 | 22.44166 | -19.35297 | 37073 ft | 421 kts | 217° |
| 2026-04-14 08:47 | 22.39160 | -19.38599 | 37072 ft | 421 kts | 217° |
| 2026-04-14 08:47 | 22.34163 | -19.41893 | 37072 ft | 421 kts | 216° |
| 2026-04-14 08:48 | 22.29193 | -19.45166 | 37072 ft | 421 kts | 216° |
| 2026-04-14 08:48 | 22.24196 | -19.48455 | 37073 ft | 420 kts | 216° |
| 2026-04-14 08:49 | 22.19198 | -19.51740 | 37073 ft | 420 kts | 216° |
| 2026-04-14 08:49 | 22.14203 | -19.55024 | 37073 ft | 420 kts | 216° |
| 2026-04-14 08:50 | 22.09208 | -19.58302 | 37073 ft | 420 kts | 216° |
| 2026-04-14 08:50 | 22.04259 | -19.61546 | 37072 ft | 419 kts | 216° |
| 2026-04-14 08:51 | 21.99277 | -19.64809 | 37072 ft | 419 kts | 216° |
| 2026-04-14 08:51 | 21.94296 | -19.68069 | 37072 ft | 418 kts | 216° |
| 2026-04-14 08:52 | 21.89324 | -19.71321 | 37073 ft | 418 kts | 216° |
| 2026-04-14 08:52 | 21.84357 | -19.74566 | 37073 ft | 418 kts | 216° |
| 2026-04-14 08:53 | 21.79386 | -19.77812 | 37073 ft | 418 kts | 216° |
| 2026-04-14 08:53 | 21.74413 | -19.81055 | 37072 ft | 417 kts | 216° |
| 2026-04-14 08:54 | 21.69474 | -19.84274 | 37063 ft | 417 kts | 216° |
| 2026-04-14 08:54 | 21.64502 | -19.87512 | 37064 ft | 417 kts | 216° |
| 2026-04-14 08:55 | 21.59534 | -19.90743 | 37064 ft | 417 kts | 216° |
| 2026-04-14 08:55 | 21.54574 | -19.93966 | 37064 ft | 417 kts | 216° |
| 2026-04-14 08:56 | 21.49607 | -19.97193 | 37064 ft | 417 kts | 216° |
| 2026-04-14 08:56 | 21.44642 | -20.00415 | 37064 ft | 416 kts | 216° |
| 2026-04-14 08:57 | 21.39688 | -20.03631 | 37063 ft | 416 kts | 216° |
| 2026-04-14 08:57 | 21.34763 | -20.06824 | 37064 ft | 416 kts | 216° |
| 2026-04-14 08:58 | 21.29819 | -20.10027 | 37064 ft | 415 kts | 216° |
| 2026-04-14 08:58 | 21.24868 | -20.13230 | 37063 ft | 415 kts | 216° |
| 2026-04-14 08:59 | 21.19928 | -20.16423 | 37063 ft | 414 kts | 216° |
| 2026-04-14 08:59 | 21.14985 | -20.19616 | 37064 ft | 414 kts | 216° |
| 2026-04-14 09:00 | 21.10052 | -20.22800 | 37063 ft | 414 kts | 216° |
| 2026-04-14 09:00 | 21.05125 | -20.25977 | 37063 ft | 413 kts | 216° |
| 2026-04-14 09:01 | 21.00201 | -20.29151 | 37063 ft | 412 kts | 217° |
| 2026-04-14 09:01 | 20.96118 | -20.31780 | 37063 ft | 412 kts | 217° |
| 2026-04-14 09:02 | 20.90382 | -20.35472 | 37025 ft | 412 kts | 217° |
| 2026-04-14 09:02 | 20.85508 | -20.38606 | 37026 ft | 411 kts | 216° |
| 2026-04-14 09:03 | 20.80610 | -20.41752 | 37025 ft | 410 kts | 217° |
| 2026-04-14 09:03 | 20.75722 | -20.44891 | 37028 ft | 409 kts | 217° |
| 2026-04-14 09:04 | 20.70843 | -20.48022 | 37026 ft | 408 kts | 217° |
| 2026-04-14 09:04 | 20.66792 | -20.50620 | 37030 ft | 408 kts | 217° |
| 2026-04-14 09:05 | 20.61925 | -20.53739 | 37025 ft | 407 kts | 217° |
| 2026-04-14 09:05 | 20.56272 | -20.57356 | 37025 ft | 407 kts | 217° |
| 2026-04-14 09:06 | 20.51407 | -20.60467 | 37035 ft | 407 kts | 217° |
| 2026-04-14 09:06 | 20.46553 | -20.63569 | 37033 ft | 407 kts | 217° |
| 2026-04-14 09:07 | 20.41729 | -20.66651 | 37033 ft | 406 kts | 217° |
| 2026-04-14 09:07 | 20.36873 | -20.69741 | 37036 ft | 407 kts | 216° |
| 2026-04-14 09:08 | 20.31809 | -20.72534 | 37032 ft | 409 kts | 213° |
| 2026-04-14 09:08 | 20.26714 | -20.75240 | 37032 ft | 409 kts | 213° |
| 2026-04-14 09:09 | 20.21608 | -20.77945 | 37037 ft | 409 kts | 213° |
| 2026-04-14 09:09 | 20.16536 | -20.80634 | 37041 ft | 409 kts | 213° |
| 2026-04-14 09:10 | 20.11435 | -20.83337 | 37038 ft | 410 kts | 213° |
| 2026-04-14 09:10 | 20.07158 | -20.85602 | 37040 ft | 410 kts | 213° |
| 2026-04-14 09:11 | 20.02072 | -20.88291 | 37037 ft | 410 kts | 212° |
| 2026-04-14 09:11 | 19.96962 | -20.90991 | 37043 ft | 410 kts | 213° |
| 2026-04-14 09:12 | 19.92693 | -20.93246 | 37037 ft | 409 kts | 213° |
| 2026-04-14 09:12 | 19.87606 | -20.95933 | 37036 ft | 408 kts | 213° |
| 2026-04-14 09:13 | 19.82524 | -20.98617 | 37041 ft | 408 kts | 213° |
| 2026-04-14 09:13 | 19.77443 | -21.01299 | 37027 ft | 408 kts | 212° |
| 2026-04-14 09:14 | 19.72365 | -21.03975 | 37025 ft | 407 kts | 212° |
| 2026-04-14 09:14 | 19.67283 | -21.06652 | 37025 ft | 407 kts | 212° |
| 2026-04-14 09:15 | 19.62204 | -21.09325 | 37025 ft | 407 kts | 212° |
| 2026-04-14 09:15 | 19.57129 | -21.11995 | 37026 ft | 407 kts | 212° |
| 2026-04-14 09:16 | 19.52042 | -21.14670 | 37042 ft | 408 kts | 212° |
| 2026-04-14 09:16 | 19.46969 | -21.17348 | 37044 ft | 412 kts | 211° |
| 2026-04-14 09:17 | 19.41819 | -21.20062 | 37047 ft | 415 kts | 211° |
| 2026-04-14 09:17 | 19.36626 | -21.22787 | 37043 ft | 417 kts | 211° |
| 2026-04-14 09:18 | 19.31416 | -21.25515 | 37043 ft | 418 kts | 211° |
| 2026-04-14 09:18 | 19.26199 | -21.28247 | 37046 ft | 419 kts | 211° |
| 2026-04-14 09:19 | 19.20931 | -21.31003 | 37047 ft | 420 kts | 211° |
| 2026-04-14 09:19 | 19.15696 | -21.33738 | 37044 ft | 420 kts | 211° |
| 2026-04-14 09:20 | 19.10457 | -21.36474 | 37049 ft | 420 kts | 211° |
| 2026-04-14 09:20 | 19.05252 | -21.39192 | 37042 ft | 420 kts | 211° |
| 2026-04-14 09:21 | 19.00011 | -21.41926 | 37046 ft | 420 kts | 211° |
| 2026-04-14 09:21 | 18.94775 | -21.44656 | 37042 ft | 419 kts | 211° |
| 2026-04-14 09:22 | 18.89534 | -21.47386 | 37042 ft | 419 kts | 211° |
| 2026-04-14 09:22 | 18.84302 | -21.50110 | 37046 ft | 419 kts | 211° |
| 2026-04-14 09:23 | 18.79071 | -21.52833 | 37042 ft | 419 kts | 211° |
| 2026-04-14 09:23 | 18.73842 | -21.55552 | 37045 ft | 419 kts | 211° |
| 2026-04-14 09:24 | 18.68607 | -21.58271 | 37046 ft | 419 kts | 211° |
| 2026-04-14 09:24 | 18.63378 | -21.60988 | 37044 ft | 418 kts | 211° |
| 2026-04-14 09:25 | 18.58188 | -21.63682 | 37045 ft | 418 kts | 211° |
| 2026-04-14 09:25 | 18.52931 | -21.66408 | 37041 ft | 418 kts | 211° |
| 2026-04-14 09:26 | 18.47702 | -21.69119 | 37047 ft | 418 kts | 211° |
| 2026-04-14 09:26 | 18.42515 | -21.71804 | 37045 ft | 418 kts | 211° |
| 2026-04-14 09:27 | 18.37284 | -21.74513 | 37046 ft | 419 kts | 211° |
| 2026-04-14 09:27 | 18.32024 | -21.77236 | 37045 ft | 419 kts | 211° |
| 2026-04-14 09:28 | 18.26829 | -21.79921 | 37047 ft | 419 kts | 212° |
| 2026-04-14 09:28 | 18.21590 | -21.82627 | 37043 ft | 419 kts | 212° |
| 2026-04-14 09:29 | 18.16353 | -21.85331 | 37043 ft | 419 kts | 212° |
| 2026-04-14 09:29 | 18.11117 | -21.88034 | 37048 ft | 419 kts | 212° |
| 2026-04-14 09:30 | 18.05882 | -21.90734 | 37044 ft | 419 kts | 212° |
| 2026-04-14 09:30 | 18.00647 | -21.93432 | 37050 ft | 419 kts | 212° |
| 2026-04-14 09:31 | 17.95410 | -21.96129 | 37046 ft | 419 kts | 212° |
| 2026-04-14 09:31 | 17.90175 | -21.98824 | 37045 ft | 419 kts | 212° |
| 2026-04-14 09:32 | 17.84938 | -22.01518 | 37043 ft | 419 kts | 212° |
| 2026-04-14 09:33 | 17.77115 | -22.05541 | 37047 ft | 419 kts | 212° |
| 2026-04-14 09:33 | 17.71884 | -22.08228 | 37046 ft | 419 kts | 212° |
| 2026-04-14 09:34 | 17.66635 | -22.10922 | 37042 ft | 419 kts | 212° |
| 2026-04-14 09:34 | 17.61392 | -22.13609 | 37043 ft | 419 kts | 212° |
| 2026-04-14 09:35 | 17.56150 | -22.16296 | 37046 ft | 419 kts | 212° |
| 2026-04-14 09:35 | 17.51791 | -22.18530 | 37043 ft | 419 kts | 212° |
| 2026-04-14 09:36 | 17.46540 | -22.21219 | 37046 ft | 419 kts | 212° |
| 2026-04-14 09:36 | 17.41331 | -22.23883 | 37045 ft | 420 kts | 212° |
| 2026-04-14 09:37 | 17.36049 | -22.26582 | 37045 ft | 419 kts | 212° |
| 2026-04-14 09:37 | 17.30836 | -22.29246 | 37046 ft | 419 kts | 212° |
| 2026-04-14 09:38 | 17.25591 | -22.31925 | 37045 ft | 419 kts | 212° |
| 2026-04-14 09:38 | 17.19462 | -22.35052 | 37047 ft | 419 kts | 212° |
| 2026-04-14 09:39 | 17.14218 | -22.37726 | 37049 ft | 419 kts | 212° |
| 2026-04-14 09:39 | 17.09006 | -22.40381 | 37044 ft | 419 kts | 212° |
| 2026-04-14 09:40 | 17.03763 | -22.43051 | 37042 ft | 419 kts | 212° |
| 2026-04-14 09:40 | 16.98521 | -22.45719 | 37045 ft | 419 kts | 212° |
| 2026-04-14 09:41 | 16.93273 | -22.48388 | 37050 ft | 419 kts | 212° |
| 2026-04-14 09:41 | 16.88035 | -22.51050 | 37046 ft | 419 kts | 212° |
| 2026-04-14 09:42 | 16.82794 | -22.53712 | 37042 ft | 419 kts | 212° |
| 2026-04-14 09:42 | 16.77592 | -22.56353 | 37045 ft | 418 kts | 212° |
| 2026-04-14 09:43 | 16.72352 | -22.59012 | 37042 ft | 418 kts | 212° |
| 2026-04-14 09:43 | 16.67115 | -22.61668 | 37044 ft | 418 kts | 212° |
| 2026-04-14 09:44 | 16.61882 | -22.64320 | 37045 ft | 418 kts | 212° |
| 2026-04-14 09:44 | 16.56648 | -22.66971 | 37041 ft | 418 kts | 212° |
| 2026-04-14 09:45 | 16.51412 | -22.69621 | 37037 ft | 418 kts | 212° |
| 2026-04-14 09:45 | 16.46179 | -22.72266 | 37033 ft | 418 kts | 212° |
| 2026-04-14 09:46 | 16.40941 | -22.74915 | 37032 ft | 418 kts | 212° |
| 2026-04-14 09:46 | 16.35736 | -22.77544 | 37026 ft | 418 kts | 212° |
| 2026-04-14 09:47 | 16.30462 | -22.80207 | 37025 ft | 418 kts | 212° |
| 2026-04-14 09:47 | 16.25229 | -22.82848 | 37025 ft | 418 kts | 212° |
| 2026-04-14 09:48 | 16.20028 | -22.85473 | 37018 ft | 418 kts | 212° |
| 2026-04-14 09:48 | 16.14792 | -22.88113 | 37018 ft | 418 kts | 212° |
| 2026-04-14 09:49 | 16.09431 | -22.90546 | 37017 ft | 421 kts | 209° |
| 2026-04-14 09:49 | 16.04009 | -22.92881 | 37018 ft | 422 kts | 209° |
| 2026-04-14 09:50 | 15.98571 | -22.95213 | 37017 ft | 422 kts | 209° |
| 2026-04-14 09:50 | 15.93129 | -22.97541 | 37017 ft | 423 kts | 210° |
| 2026-04-14 09:51 | 15.87668 | -22.99877 | 37006 ft | 424 kts | 210° |
| 2026-04-14 09:51 | 15.82261 | -23.02189 | 36920 ft | 418 kts | 210° |
| 2026-04-14 09:51 | 15.79605 | -23.03320 | 36736 ft | 409 kts | 210° |
| 2026-04-14 09:52 | 15.76986 | -23.04436 | 36148 ft | 406 kts | 210° |
| 2026-04-14 09:52 | 15.74370 | -23.05557 | 35324 ft | 407 kts | 209° |
| 2026-04-14 09:52 | 15.71742 | -23.06688 | 34384 ft | 411 kts | 209° |
| 2026-04-14 09:52 | 15.69093 | -23.07830 | 33441 ft | 414 kts | 208° |
| 2026-04-14 09:53 | 15.66421 | -23.08980 | 32384 ft | 419 kts | 208° |
| 2026-04-14 09:53 | 15.63704 | -23.10148 | 31261 ft | 425 kts | 208° |
| 2026-04-14 09:53 | 15.60960 | -23.11326 | 30188 ft | 429 kts | 207° |
| 2026-04-14 09:53 | 15.58223 | -23.12499 | 29107 ft | 433 kts | 207° |
| 2026-04-14 09:54 | 15.56343 | -23.13304 | 28502 ft | 432 kts | 207° |
| 2026-04-14 09:54 | 15.52669 | -23.14868 | 27439 ft | 429 kts | 206° |
| 2026-04-14 09:54 | 15.49895 | -23.15985 | 26701 ft | 425 kts | 205° |
| 2026-04-14 09:54 | 15.48028 | -23.16717 | 26174 ft | 424 kts | 205° |
| 2026-04-14 09:55 | 15.45277 | -23.17788 | 25378 ft | 422 kts | 205° |
| 2026-04-14 09:55 | 15.42572 | -23.18842 | 24625 ft | 418 kts | 204° |
| 2026-04-14 09:55 | 15.39858 | -23.19903 | 23866 ft | 416 kts | 204° |
| 2026-04-14 09:55 | 15.37162 | -23.20962 | 23128 ft | 413 kts | 204° |
| 2026-04-14 09:56 | 15.34490 | -23.22015 | 22402 ft | 410 kts | 204° |
| 2026-04-14 09:56 | 15.31834 | -23.23063 | 21695 ft | 406 kts | 203° |
| 2026-04-14 09:56 | 15.29204 | -23.24101 | 20983 ft | 403 kts | 203° |
| 2026-04-14 09:56 | 15.26593 | -23.25131 | 20278 ft | 400 kts | 202° |
| 2026-04-14 09:57 | 15.24000 | -23.26155 | 19569 ft | 397 kts | 202° |
| 2026-04-14 09:57 | 15.21425 | -23.27170 | 18869 ft | 394 kts | 202° |
| 2026-04-14 09:57 | 15.18873 | -23.28177 | 18154 ft | 392 kts | 201° |
| 2026-04-14 09:57 | 15.16334 | -23.29176 | 17459 ft | 389 kts | 201° |
| 2026-04-14 09:58 | 15.13815 | -23.30166 | 16756 ft | 386 kts | 201° |
| 2026-04-14 09:58 | 15.11307 | -23.31149 | 16005 ft | 385 kts | 201° |
| 2026-04-14 09:58 | 15.08804 | -23.32130 | 15288 ft | 383 kts | 201° |
| 2026-04-14 09:58 | 15.06317 | -23.33104 | 14583 ft | 381 kts | 201° |
| 2026-04-14 09:59 | 15.03840 | -23.34073 | 13892 ft | 380 kts | 201° |
| 2026-04-14 09:59 | 15.01382 | -23.35036 | 13391 ft | 373 kts | 201° |
| 2026-04-14 09:59 | 14.99003 | -23.35968 | 13227 ft | 358 kts | 201° |
| 2026-04-14 09:59 | 14.96723 | -23.36861 | 13063 ft | 343 kts | 201° |
| 2026-04-14 10:00 | 14.94532 | -23.37719 | 12928 ft | 329 kts | 201° |
| 2026-04-14 10:00 | 14.92437 | -23.38540 | 12795 ft | 313 kts | 201° |
| 2026-04-14 10:00 | 14.90458 | -23.39314 | 12627 ft | 295 kts | 201° |
| 2026-04-14 10:00 | 14.88577 | -23.40049 | 12229 ft | 286 kts | 201° |
| 2026-04-14 10:01 | 14.86721 | -23.40776 | 11647 ft | 285 kts | 201° |
| 2026-04-14 10:01 | 14.84867 | -23.41501 | 11038 ft | 285 kts | 200° |
| 2026-04-14 10:01 | 14.83014 | -23.42228 | 10409 ft | 285 kts | 200° |
| 2026-04-14 10:01 | 14.81157 | -23.42955 | 9798 ft | 285 kts | 200° |
| 2026-04-14 10:02 | 14.79323 | -23.43675 | 9174 ft | 286 kts | 200° |
| 2026-04-14 10:02 | 14.77459 | -23.44406 | 8548 ft | 286 kts | 200° |
| 2026-04-14 10:02 | 14.75600 | -23.45134 | 8002 ft | 284 kts | 200° |
| 2026-04-14 10:02 | 14.73865 | -23.46010 | 7157 ft | 276 kts | 218° |
| 2026-04-14 10:03 | 14.72625 | -23.47494 | 6147 ft | 272 kts | 244° |
| 2026-04-14 10:03 | 14.72148 | -23.49338 | 5181 ft | 265 kts | 272° |
| 2026-04-14 10:03 | 14.72501 | -23.51145 | 4359 ft | 252 kts | 296° |
| 2026-04-14 10:03 | 14.73292 | -23.52733 | 3974 ft | 249 kts | 302° |
| 2026-04-14 10:04 | 14.74247 | -23.54214 | 3641 ft | 244 kts | 319° |
| 2026-04-14 10:04 | 14.75626 | -23.55153 | 3315 ft | 235 kts | 343° |
| 2026-04-14 10:04 | 14.77197 | -23.55361 | 3136 ft | 228 kts | 9° |
| 2026-04-14 10:04 | 14.78674 | -23.54896 | 3052 ft | 224 kts | 24° |
| 2026-04-14 10:05 | 14.80105 | -23.54267 | 2992 ft | 219 kts | 24° |
| 2026-04-14 10:05 | 14.81464 | -23.53677 | 2868 ft | 206 kts | 23° |
| 2026-04-14 10:05 | 14.82783 | -23.53116 | 2536 ft | 204 kts | 22° |
| 2026-04-14 10:05 | 14.84102 | -23.52566 | 2170 ft | 202 kts | 22° |
| 2026-04-14 10:06 | 14.85373 | -23.52042 | 1787 ft | 192 kts | 22° |
| 2026-04-14 10:06 | 14.86582 | -23.51547 | 1460 ft | 179 kts | 21° |
| 2026-04-14 10:06 | 14.87699 | -23.51088 | 1153 ft | 166 kts | 21° |
| 2026-04-14 10:06 | 14.88712 | -23.50674 | 1016 ft | 147 kts | 21° |
| 2026-04-14 10:07 | 14.89598 | -23.50312 | 1000 ft | 132 kts | 21° |
| 2026-04-14 10:07 | 14.90417 | -23.49974 | 810 ft | 125 kts | 20° |
| 2026-04-14 10:07 | 14.91230 | -23.49638 | 584 ft | 124 kts | 22° |
| 2026-04-14 10:07 | 14.92036 | -23.49321 | 480 ft | 124 kts | 19° |
| 2026-04-14 10:08 | 14.92850 | -23.49001 | 383 ft | 126 kts | 21° |
| 2026-04-14 10:08 | 14.93653 | -23.48670 | 307 ft | 118 kts | 21° |
| 2026-04-14 10:08 | 14.94211 | -23.48434 | 311 ft | 46 kts | 22° |
| 2026-04-14 10:08 | 14.94282 | -23.48406 | 310 ft | 5 kts | 12° |
| 2026-04-14 10:09 | 14.94329 | -23.48406 | 311 ft | 8 kts | 331° |
| 2026-04-14 10:09 | 14.94349 | -23.48462 | 311 ft | 10 kts | 285° |
| 2026-04-14 10:09 | 14.94393 | -23.48519 | 311 ft | 10 kts | 332° |
| 2026-04-14 10:09 | 14.94417 | -23.48547 | 311 ft | 1 kts | 296° |
| 2026-04-14 10:10 | 14.94427 | -23.48568 | 311 ft | 6 kts | 297° |
| 2026-04-14 10:10 | 14.94431 | -23.48580 | 311 ft | 0 kts | 290° |